Погода Жирныйна 2 недели

Ростовская область, Россия

19 июля-01 августа
  • 19июля
    Сегодня
    +24°
    +40°
    Практически безоблачно
    ВремяПогодаТемператураВлажностьДавлениеВетер, м/сВероятность осадков
    00:00Ясно и безоблачно+28°C28 %753 мм1.4 м/с2 %
    03:00Ясно и безоблачно+23°C37 %753 мм2.2 м/с2 %
    06:00Ясно и безоблачно+25°C36 %752 мм0.8 м/с2 %
    09:00Ясно и безоблачно+35°C22 %752 мм1.5 м/с2 %
    12:00Ясно и безоблачно+39°C18 %751 мм1.3 м/с2 %
    15:00Практически безоблачно+39°C17 %750 мм3.3 м/с2 %
    18:00Небольшая облачность+39°C18 %749 мм2.9 м/с2 %
    21:00Ясно и безоблачно+31°C33 %749 мм3.8 м/с2 %
  • 20июля
    Суббота
    +22°
    +36°
    Облачно с прояснениями
    ВремяПогодаТемператураВлажностьДавлениеВетер, м/сВероятность осадков
    00:00Небольшая облачность+28°C43 %749 мм3.7 м/с2 %
    03:00Небольшая облачность+25°C52 %749 мм3.0 м/с2 %
    06:00Ясно и безоблачно+25°C55 %749 мм3.2 м/с2 %
    09:00Ясно и безоблачно+31°C41 %749 мм4.1 м/с2 %
    12:00Небольшая облачность+33°C35 %749 мм3.4 м/с16 %
    15:00Облачно с прояснениями+35°C32 %749 мм1.1 м/с36 %
    18:00Облачно с прояснениями+33°C31 %749 мм1.7 м/с11 %
    21:00Облачно с прояснениями+29°C37 %750 мм0.7 м/с2 %
  • 21июля
    Воскресенье
    +23°
    +37°
    Ясно и безоблачно
    ВремяПогодаТемператураВлажностьДавлениеВетер, м/сВероятность осадков
    00:00Облачно с прояснениями+26°C46 %750 мм1.8 м/с2 %
    03:00Облачно с прояснениями+23°C47 %750 мм2.5 м/с2 %
    06:00Небольшая облачность+24°C55 %751 мм2.6 м/с5 %
    09:00Ясно и безоблачно+31°C36 %751 мм1.6 м/с3 %
    12:00Ясно и безоблачно+35°C26 %751 мм0.1 м/с4 %
    15:00Ясно и безоблачно+36°C22 %750 мм1.7 м/с10 %
    18:00Небольшая облачность+34°C21 %750 мм2.4 м/с2 %
    21:00Ясно и безоблачно+30°C26 %751 мм2.8 м/с2 %
  • 22июля
    Понедельник
    +21°
    +38°
    Небольшая облачность
    ВремяПогодаТемператураВлажностьДавлениеВетер, м/сВероятность осадков
    00:00Облачно с прояснениями+27°C34 %751 мм2.3 м/с2 %
    03:00Ясно и безоблачно+24°C41 %751 мм2.1 м/с2 %
    06:00Ясно и безоблачно+25°C34 %751 мм2.5 м/с2 %
    09:00Ясно и безоблачно+34°C21 %751 мм2.5 м/с2 %
    12:00Практически безоблачно+37°C20 %751 мм0.1 м/с4 %
    15:00Небольшая облачность+37°C19 %750 мм1.2 м/с11 %
    18:00Небольшая облачность+33°C26 %750 мм5.6 м/с8 %
    21:00Практически безоблачно+29°C34 %751 мм2.6 м/с5 %
  • 23июля
    Вторник
    +19°
    +35°
    Облачно с прояснениями
    ВремяПогодаТемператураВлажностьДавлениеВетер, м/сВероятность осадков
    00:00Ясно и безоблачно+26°C39 %750 мм3.4 м/с4 %
    03:00Практически безоблачно+23°C35 %750 мм2.8 м/с9 %
    06:00Ясно и безоблачно+23°C36 %750 мм3.4 м/с13 %
    09:00Небольшая облачность, возможен дождь с грозой+29°C33 %750 мм3.0 м/с10 %
    12:00Ясно и безоблачно+33°C26 %749 мм2.0 м/с14 %
    15:00Облачно с прояснениями+34°C28 %748 мм3.2 м/с30 %
    18:00Облачно с прояснениями+33°C29 %748 мм2.8 м/с25 %
    21:00Облачно с прояснениями+27°C46 %749 мм4.1 м/с15 %
Мы используем cookies
Соглашаюсь